sensor_id;sensor_type;location;lat;lon;timestamp;P1;durP1;ratioP1;P2;durP2;ratioP2
20142;SDS011;10509;46.476;7.134;2022-07-17T00:00:20;2.00;;;1.90;;
20142;SDS011;10509;46.476;7.134;2022-07-17T00:02:46;1.73;;;1.57;;
20142;SDS011;10509;46.476;7.134;2022-07-17T00:05:13;2.00;;;1.80;;
20142;SDS011;10509;46.476;7.134;2022-07-17T00:07:39;2.23;;;2.00;;
20142;SDS011;10509;46.476;7.134;2022-07-17T00:10:05;2.27;;;1.80;;
20142;SDS011;10509;46.476;7.134;2022-07-17T00:12:31;2.17;;;1.70;;
20142;SDS011;10509;46.476;7.134;2022-07-17T00:14:57;1.87;;;1.77;;
20142;SDS011;10509;46.476;7.134;2022-07-17T00:17:23;1.80;;;1.70;;
20142;SDS011;10509;46.476;7.134;2022-07-17T00:19:49;3.10;;;1.80;;
20142;SDS011;10509;46.476;7.134;2022-07-17T00:22:15;2.37;;;1.50;;
20142;SDS011;10509;46.476;7.134;2022-07-17T00:24:41;1.87;;;1.57;;
20142;SDS011;10509;46.476;7.134;2022-07-17T00:27:07;2.03;;;1.73;;
20142;SDS011;10509;46.476;7.134;2022-07-17T00:29:33;1.90;;;1.80;;
20142;SDS011;10509;46.476;7.134;2022-07-17T00:31:59;1.80;;;1.70;;
20142;SDS011;10509;46.476;7.134;2022-07-17T00:34:25;1.77;;;1.67;;
20142;SDS011;10509;46.476;7.134;2022-07-17T00:36:52;2.23;;;1.50;;
20142;SDS011;10509;46.476;7.134;2022-07-17T00:39:18;2.07;;;1.70;;
20142;SDS011;10509;46.476;7.134;2022-07-17T00:41:44;1.83;;;1.73;;
20142;SDS011;10509;46.476;7.134;2022-07-17T00:44:11;1.70;;;1.50;;
20142;SDS011;10509;46.476;7.134;2022-07-17T00:46:37;1.50;;;1.40;;
20142;SDS011;10509;46.476;7.134;2022-07-17T00:49:03;1.80;;;1.70;;
20142;SDS011;10509;46.476;7.134;2022-07-17T00:51:30;1.87;;;1.70;;
20142;SDS011;10509;46.476;7.134;2022-07-17T00:53:57;2.60;;;1.83;;
20142;SDS011;10509;46.476;7.134;2022-07-17T00:56:23;2.00;;;1.80;;
20142;SDS011;10509;46.476;7.134;2022-07-17T00:58:50;2.00;;;1.70;;
20142;SDS011;10509;46.476;7.134;2022-07-17T01:01:16;1.83;;;1.70;;
20142;SDS011;10509;46.476;7.134;2022-07-17T01:03:42;2.30;;;2.10;;
20142;SDS011;10509;46.476;7.134;2022-07-17T01:06:08;2.53;;;2.07;;
20142;SDS011;10509;46.476;7.134;2022-07-17T01:08:34;1.90;;;1.47;;
20142;SDS011;10509;46.476;7.134;2022-07-17T01:11:01;4.00;;;1.93;;
20142;SDS011;10509;46.476;7.134;2022-07-17T01:13:27;1.90;;;1.80;;
20142;SDS011;10509;46.476;7.134;2022-07-17T01:15:53;2.27;;;1.73;;
20142;SDS011;10509;46.476;7.134;2022-07-17T01:18:19;1.93;;;1.83;;
20142;SDS011;10509;46.476;7.134;2022-07-17T01:20:47;1.90;;;1.70;;
20142;SDS011;10509;46.476;7.134;2022-07-17T01:23:14;2.13;;;1.93;;
20142;SDS011;10509;46.476;7.134;2022-07-17T01:25:40;2.57;;;1.90;;
20142;SDS011;10509;46.476;7.134;2022-07-17T01:28:06;1.93;;;1.80;;
20142;SDS011;10509;46.476;7.134;2022-07-17T01:30:33;3.40;;;1.90;;
20142;SDS011;10509;46.476;7.134;2022-07-17T01:32:59;2.83;;;2.17;;
20142;SDS011;10509;46.476;7.134;2022-07-17T01:35:25;2.47;;;1.80;;
20142;SDS011;10509;46.476;7.134;2022-07-17T01:37:51;2.30;;;2.10;;
20142;SDS011;10509;46.476;7.134;2022-07-17T01:40:17;2.47;;;2.27;;
20142;SDS011;10509;46.476;7.134;2022-07-17T01:42:47;2.30;;;2.10;;
20142;SDS011;10509;46.476;7.134;2022-07-17T01:45:14;3.67;;;2.00;;
20142;SDS011;10509;46.476;7.134;2022-07-17T01:47:40;2.30;;;2.10;;
20142;SDS011;10509;46.476;7.134;2022-07-17T01:50:08;3.53;;;2.20;;
20142;SDS011;10509;46.476;7.134;2022-07-17T01:52:35;2.43;;;2.23;;
20142;SDS011;10509;46.476;7.134;2022-07-17T01:55:01;2.20;;;2.10;;
20142;SDS011;10509;46.476;7.134;2022-07-17T01:57:28;4.03;;;2.10;;
20142;SDS011;10509;46.476;7.134;2022-07-17T01:59:54;3.40;;;2.30;;
20142;SDS011;10509;46.476;7.134;2022-07-17T02:02:20;2.70;;;2.10;;
20142;SDS011;10509;46.476;7.134;2022-07-17T02:04:46;1.90;;;1.80;;
20142;SDS011;10509;46.476;7.134;2022-07-17T02:07:12;1.67;;;1.57;;
20142;SDS011;10509;46.476;7.134;2022-07-17T02:09:38;2.00;;;1.87;;
20142;SDS011;10509;46.476;7.134;2022-07-17T02:12:05;4.23;;;1.90;;
20142;SDS011;10509;46.476;7.134;2022-07-17T02:14:31;2.50;;;2.30;;
20142;SDS011;10509;46.476;7.134;2022-07-17T02:16:57;2.67;;;2.33;;
20142;SDS011;10509;46.476;7.134;2022-07-17T02:19:23;3.77;;;2.00;;
20142;SDS011;10509;46.476;7.134;2022-07-17T02:21:49;2.33;;;2.10;;
20142;SDS011;10509;46.476;7.134;2022-07-17T02:24:15;2.37;;;1.80;;
20142;SDS011;10509;46.476;7.134;2022-07-17T02:26:41;2.30;;;2.10;;
20142;SDS011;10509;46.476;7.134;2022-07-17T02:29:07;2.43;;;2.10;;
20142;SDS011;10509;46.476;7.134;2022-07-17T02:31:33;2.77;;;1.93;;
20142;SDS011;10509;46.476;7.134;2022-07-17T02:33:59;3.10;;;2.20;;
20142;SDS011;10509;46.476;7.134;2022-07-17T02:36:25;2.33;;;2.00;;
20142;SDS011;10509;46.476;7.134;2022-07-17T02:38:51;2.13;;;1.93;;
20142;SDS011;10509;46.476;7.134;2022-07-17T02:41:17;2.00;;;1.90;;
20142;SDS011;10509;46.476;7.134;2022-07-17T02:43:43;2.33;;;2.13;;
20142;SDS011;10509;46.476;7.134;2022-07-17T02:46:09;2.40;;;2.20;;
20142;SDS011;10509;46.476;7.134;2022-07-17T02:48:35;2.20;;;2.00;;
20142;SDS011;10509;46.476;7.134;2022-07-17T02:51:01;1.93;;;1.83;;
20142;SDS011;10509;46.476;7.134;2022-07-17T02:53:27;2.37;;;2.17;;
20142;SDS011;10509;46.476;7.134;2022-07-17T02:55:53;1.90;;;1.80;;
20142;SDS011;10509;46.476;7.134;2022-07-17T02:58:19;2.13;;;2.03;;
20142;SDS011;10509;46.476;7.134;2022-07-17T03:00:45;2.60;;;1.77;;
20142;SDS011;10509;46.476;7.134;2022-07-17T03:03:11;3.93;;;2.10;;
20142;SDS011;10509;46.476;7.134;2022-07-17T03:05:37;2.20;;;2.00;;
20142;SDS011;10509;46.476;7.134;2022-07-17T03:08:03;3.03;;;2.30;;
20142;SDS011;10509;46.476;7.134;2022-07-17T03:10:29;2.53;;;1.80;;
20142;SDS011;10509;46.476;7.134;2022-07-17T03:12:55;2.00;;;1.90;;
20142;SDS011;10509;46.476;7.134;2022-07-17T03:15:21;3.30;;;2.03;;
20142;SDS011;10509;46.476;7.134;2022-07-17T03:17:47;2.83;;;1.80;;
20142;SDS011;10509;46.476;7.134;2022-07-17T03:20:13;2.10;;;2.00;;
20142;SDS011;10509;46.476;7.134;2022-07-17T03:22:39;2.50;;;2.30;;
20142;SDS011;10509;46.476;7.134;2022-07-17T03:25:06;2.47;;;1.87;;
20142;SDS011;10509;46.476;7.134;2022-07-17T03:27:32;2.70;;;2.50;;
20142;SDS011;10509;46.476;7.134;2022-07-17T03:29:58;2.70;;;2.50;;
20142;SDS011;10509;46.476;7.134;2022-07-17T03:32:24;2.73;;;2.10;;
20142;SDS011;10509;46.476;7.134;2022-07-17T03:34:50;3.27;;;2.40;;
20142;SDS011;10509;46.476;7.134;2022-07-17T03:37:16;2.27;;;1.93;;
20142;SDS011;10509;46.476;7.134;2022-07-17T03:39:42;2.23;;;2.13;;
20142;SDS011;10509;46.476;7.134;2022-07-17T03:42:08;2.50;;;2.30;;
20142;SDS011;10509;46.476;7.134;2022-07-17T03:44:34;2.50;;;2.30;;
20142;SDS011;10509;46.476;7.134;2022-07-17T03:47:00;2.53;;;2.20;;
20142;SDS011;10509;46.476;7.134;2022-07-17T03:49:26;3.37;;;2.50;;
20142;SDS011;10509;46.476;7.134;2022-07-17T03:51:52;2.90;;;2.60;;
20142;SDS011;10509;46.476;7.134;2022-07-17T03:54:18;3.07;;;2.57;;
20142;SDS011;10509;46.476;7.134;2022-07-17T03:56:44;2.37;;;2.27;;
20142;SDS011;10509;46.476;7.134;2022-07-17T03:59:10;2.80;;;2.60;;
20142;SDS011;10509;46.476;7.134;2022-07-17T04:01:36;2.50;;;2.30;;
20142;SDS011;10509;46.476;7.134;2022-07-17T04:04:02;2.40;;;2.20;;
20142;SDS011;10509;46.476;7.134;2022-07-17T04:06:28;2.43;;;2.23;;
20142;SDS011;10509;46.476;7.134;2022-07-17T04:08:54;2.30;;;2.10;;
20142;SDS011;10509;46.476;7.134;2022-07-17T04:11:20;2.20;;;2.10;;
20142;SDS011;10509;46.476;7.134;2022-07-17T04:13:47;2.50;;;2.30;;
20142;SDS011;10509;46.476;7.134;2022-07-17T04:16:13;2.83;;;2.63;;
20142;SDS011;10509;46.476;7.134;2022-07-17T04:18:39;2.37;;;2.17;;
20142;SDS011;10509;46.476;7.134;2022-07-17T04:21:05;3.00;;;2.63;;
20142;SDS011;10509;46.476;7.134;2022-07-17T04:23:32;3.00;;;2.47;;
20142;SDS011;10509;46.476;7.134;2022-07-17T04:25:58;3.83;;;2.20;;
20142;SDS011;10509;46.476;7.134;2022-07-17T04:28:24;3.90;;;2.63;;
20142;SDS011;10509;46.476;7.134;2022-07-17T04:30:50;2.10;;;2.00;;
20142;SDS011;10509;46.476;7.134;2022-07-17T04:33:16;2.87;;;2.57;;
20142;SDS011;10509;46.476;7.134;2022-07-17T04:35:43;5.20;;;2.60;;
20142;SDS011;10509;46.476;7.134;2022-07-17T04:38:09;2.30;;;2.20;;
20142;SDS011;10509;46.476;7.134;2022-07-17T04:40:36;6.97;;;2.60;;
20142;SDS011;10509;46.476;7.134;2022-07-17T04:43:03;2.80;;;2.60;;
20142;SDS011;10509;46.476;7.134;2022-07-17T04:45:29;3.10;;;2.83;;
20142;SDS011;10509;46.476;7.134;2022-07-17T04:47:55;3.00;;;2.80;;
20142;SDS011;10509;46.476;7.134;2022-07-17T04:50:22;3.07;;;2.87;;
20142;SDS011;10509;46.476;7.134;2022-07-17T04:52:48;4.30;;;3.03;;
20142;SDS011;10509;46.476;7.134;2022-07-17T04:55:14;3.33;;;2.83;;
20142;SDS011;10509;46.476;7.134;2022-07-17T04:57:41;3.10;;;2.90;;
20142;SDS011;10509;46.476;7.134;2022-07-17T05:00:08;3.00;;;2.80;;
20142;SDS011;10509;46.476;7.134;2022-07-17T05:02:34;2.60;;;2.40;;
20142;SDS011;10509;46.476;7.134;2022-07-17T05:05:00;3.23;;;2.93;;
20142;SDS011;10509;46.476;7.134;2022-07-17T05:07:27;2.67;;;2.47;;
20142;SDS011;10509;46.476;7.134;2022-07-17T05:09:53;3.70;;;2.50;;
20142;SDS011;10509;46.476;7.134;2022-07-17T05:12:19;2.43;;;2.20;;
20142;SDS011;10509;46.476;7.134;2022-07-17T05:14:45;3.13;;;2.83;;
20142;SDS011;10509;46.476;7.134;2022-07-17T05:17:11;5.90;;;2.60;;
20142;SDS011;10509;46.476;7.134;2022-07-17T05:19:38;2.53;;;2.33;;
20142;SDS011;10509;46.476;7.134;2022-07-17T05:22:04;2.50;;;2.30;;
20142;SDS011;10509;46.476;7.134;2022-07-17T05:24:30;2.50;;;2.30;;
20142;SDS011;10509;46.476;7.134;2022-07-17T05:26:58;2.50;;;2.30;;
20142;SDS011;10509;46.476;7.134;2022-07-17T05:29:24;2.60;;;2.40;;
20142;SDS011;10509;46.476;7.134;2022-07-17T05:31:50;3.87;;;2.30;;
20142;SDS011;10509;46.476;7.134;2022-07-17T05:34:16;2.83;;;2.40;;
20142;SDS011;10509;46.476;7.134;2022-07-17T05:36:42;3.53;;;2.37;;
20142;SDS011;10509;46.476;7.134;2022-07-17T05:39:08;3.50;;;2.50;;
20142;SDS011;10509;46.476;7.134;2022-07-17T05:41:35;3.67;;;2.90;;
20142;SDS011;10509;46.476;7.134;2022-07-17T05:44:01;3.47;;;2.30;;
20142;SDS011;10509;46.476;7.134;2022-07-17T05:46:28;3.10;;;2.80;;
20142;SDS011;10509;46.476;7.134;2022-07-17T05:48:54;4.40;;;2.53;;
20142;SDS011;10509;46.476;7.134;2022-07-17T05:51:20;2.60;;;1.93;;
20142;SDS011;10509;46.476;7.134;2022-07-17T05:53:46;4.57;;;2.70;;
20142;SDS011;10509;46.476;7.134;2022-07-17T05:56:11;2.87;;;2.50;;
20142;SDS011;10509;46.476;7.134;2022-07-17T05:58:38;2.47;;;2.27;;
20142;SDS011;10509;46.476;7.134;2022-07-17T06:01:04;3.60;;;2.87;;
20142;SDS011;10509;46.476;7.134;2022-07-17T06:03:30;2.57;;;2.37;;
20142;SDS011;10509;46.476;7.134;2022-07-17T06:05:56;2.83;;;2.37;;
20142;SDS011;10509;46.476;7.134;2022-07-17T06:08:22;2.97;;;2.15;;
20142;SDS011;10509;46.476;7.134;2022-07-17T06:10:48;2.47;;;2.28;;
20142;SDS011;10509;46.476;7.134;2022-07-17T06:13:14;2.58;;;2.38;;
20142;SDS011;10509;46.476;7.134;2022-07-17T06:15:40;2.38;;;2.17;;
20142;SDS011;10509;46.476;7.134;2022-07-17T06:18:06;2.72;;;2.53;;
20142;SDS011;10509;46.476;7.134;2022-07-17T06:20:32;2.53;;;2.33;;
20142;SDS011;10509;46.476;7.134;2022-07-17T06:22:58;2.60;;;2.40;;
20142;SDS011;10509;46.476;7.134;2022-07-17T06:25:24;2.38;;;2.17;;
20142;SDS011;10509;46.476;7.134;2022-07-17T06:27:50;2.67;;;2.47;;
20142;SDS011;10509;46.476;7.134;2022-07-17T06:30:17;2.50;;;2.30;;
20142;SDS011;10509;46.476;7.134;2022-07-17T06:32:43;2.83;;;2.50;;
20142;SDS011;10509;46.476;7.134;2022-07-17T06:35:09;3.10;;;2.38;;
20142;SDS011;10509;46.476;7.134;2022-07-17T06:37:36;3.22;;;2.40;;
20142;SDS011;10509;46.476;7.134;2022-07-17T06:40:02;2.42;;;2.10;;
20142;SDS011;10509;46.476;7.134;2022-07-17T06:42:28;3.05;;;2.10;;
20142;SDS011;10509;46.476;7.134;2022-07-17T06:44:54;3.85;;;2.08;;
20142;SDS011;10509;46.476;7.134;2022-07-17T06:47:21;2.42;;;2.22;;
20142;SDS011;10509;46.476;7.134;2022-07-17T06:49:47;3.08;;;2.17;;
20142;SDS011;10509;46.476;7.134;2022-07-17T06:52:13;3.45;;;2.00;;
20142;SDS011;10509;46.476;7.134;2022-07-17T06:54:39;2.05;;;1.95;;
20142;SDS011;10509;46.476;7.134;2022-07-17T06:57:05;2.13;;;1.95;;
20142;SDS011;10509;46.476;7.134;2022-07-17T06:59:31;4.07;;;2.08;;
20142;SDS011;10509;46.476;7.134;2022-07-17T07:01:57;2.00;;;1.80;;
20142;SDS011;10509;46.476;7.134;2022-07-17T07:04:23;2.92;;;1.98;;
20142;SDS011;10509;46.476;7.134;2022-07-17T07:06:49;2.42;;;1.90;;
20142;SDS011;10509;46.476;7.134;2022-07-17T07:09:15;3.47;;;1.80;;
20142;SDS011;10509;46.476;7.134;2022-07-17T07:11:41;2.10;;;1.85;;
20142;SDS011;10509;46.476;7.134;2022-07-17T07:14:07;4.28;;;2.28;;
20142;SDS011;10509;46.476;7.134;2022-07-17T07:16:33;2.60;;;1.70;;
20142;SDS011;10509;46.476;7.134;2022-07-17T07:18:59;2.53;;;1.77;;
20142;SDS011;10509;46.476;7.134;2022-07-17T07:21:25;2.70;;;1.70;;
20142;SDS011;10509;46.476;7.134;2022-07-17T07:23:54;2.95;;;1.90;;
20142;SDS011;10509;46.476;7.134;2022-07-17T07:26:21;3.17;;;1.95;;
20142;SDS011;10509;46.476;7.134;2022-07-17T07:28:47;2.35;;;2.15;;
20142;SDS011;10509;46.476;7.134;2022-07-17T07:31:13;2.40;;;1.50;;
20142;SDS011;10509;46.476;7.134;2022-07-17T07:33:41;2.20;;;1.90;;
20142;SDS011;10509;46.476;7.134;2022-07-17T07:36:07;2.10;;;1.85;;
20142;SDS011;10509;46.476;7.134;2022-07-17T07:38:33;2.97;;;1.85;;
20142;SDS011;10509;46.476;7.134;2022-07-17T07:40:59;2.53;;;2.08;;
20142;SDS011;10509;46.476;7.134;2022-07-17T07:43:25;1.92;;;1.67;;
20142;SDS011;10509;46.476;7.134;2022-07-17T07:45:51;2.28;;;1.88;;
20142;SDS011;10509;46.476;7.134;2022-07-17T07:48:17;4.18;;;1.95;;
20142;SDS011;10509;46.476;7.134;2022-07-17T07:50:43;2.85;;;1.75;;
20142;SDS011;10509;46.476;7.134;2022-07-17T07:53:09;2.20;;;1.70;;
20142;SDS011;10509;46.476;7.134;2022-07-17T07:55:35;2.58;;;2.38;;
20142;SDS011;10509;46.476;7.134;2022-07-17T07:58:06;3.45;;;2.10;;
20142;SDS011;10509;46.476;7.134;2022-07-17T08:00:32;2.38;;;2.10;;
20142;SDS011;10509;46.476;7.134;2022-07-17T08:02:58;3.10;;;1.80;;
20142;SDS011;10509;46.476;7.134;2022-07-17T08:05:24;3.22;;;2.00;;
20142;SDS011;10509;46.476;7.134;2022-07-17T08:07:51;1.90;;;1.80;;
20142;SDS011;10509;46.476;7.134;2022-07-17T08:10:17;2.17;;;1.98;;
20142;SDS011;10509;46.476;7.134;2022-07-17T08:12:43;1.85;;;1.75;;
20142;SDS011;10509;46.476;7.134;2022-07-17T08:15:09;1.75;;;1.50;;
20142;SDS011;10509;46.476;7.134;2022-07-17T08:17:35;2.50;;;2.08;;
20142;SDS011;10509;46.476;7.134;2022-07-17T08:20:01;2.78;;;1.90;;
20142;SDS011;10509;46.476;7.134;2022-07-17T08:22:27;1.83;;;1.73;;
20142;SDS011;10509;46.476;7.134;2022-07-17T08:24:53;1.88;;;1.75;;
20142;SDS011;10509;46.476;7.134;2022-07-17T08:27:19;2.92;;;1.40;;
20142;SDS011;10509;46.476;7.134;2022-07-17T08:29:46;1.73;;;1.60;;
20142;SDS011;10509;46.476;7.134;2022-07-17T08:32:12;3.63;;;1.90;;
20142;SDS011;10509;46.476;7.134;2022-07-17T08:34:38;1.48;;;1.30;;
20142;SDS011;10509;46.476;7.134;2022-07-17T08:37:04;2.85;;;1.45;;
20142;SDS011;10509;46.476;7.134;2022-07-17T08:39:30;3.13;;;1.65;;
20142;SDS011;10509;46.476;7.134;2022-07-17T08:41:56;1.50;;;1.40;;
20142;SDS011;10509;46.476;7.134;2022-07-17T08:44:22;2.63;;;1.65;;
20142;SDS011;10509;46.476;7.134;2022-07-17T08:46:48;2.17;;;1.70;;
20142;SDS011;10509;46.476;7.134;2022-07-17T08:49:14;2.58;;;1.50;;
20142;SDS011;10509;46.476;7.134;2022-07-17T08:51:46;2.95;;;1.95;;
20142;SDS011;10509;46.476;7.134;2022-07-17T08:54:12;1.92;;;1.80;;
20142;SDS011;10509;46.476;7.134;2022-07-17T08:56:39;3.53;;;1.83;;
20142;SDS011;10509;46.476;7.134;2022-07-17T08:59:05;1.70;;;1.60;;
20142;SDS011;10509;46.476;7.134;2022-07-17T09:01:31;3.65;;;1.63;;
20142;SDS011;10509;46.476;7.134;2022-07-17T09:03:58;2.10;;;2.00;;
20142;SDS011;10509;46.476;7.134;2022-07-17T09:06:25;4.03;;;2.22;;
20142;SDS011;10509;46.476;7.134;2022-07-17T09:09:02;4.93;;;1.77;;
20142;SDS011;10509;46.476;7.134;2022-07-17T09:11:28;1.77;;;1.30;;
20142;SDS011;10509;46.476;7.134;2022-07-17T09:13:55;2.38;;;1.50;;
20142;SDS011;10509;46.476;7.134;2022-07-17T09:16:21;2.60;;;1.65;;
20142;SDS011;10509;46.476;7.134;2022-07-17T09:18:50;3.38;;;1.77;;
20142;SDS011;10509;46.476;7.134;2022-07-17T09:21:22;3.72;;;1.65;;
20142;SDS011;10509;46.476;7.134;2022-07-17T09:24:02;2.72;;;1.40;;
20142;SDS011;10509;46.476;7.134;2022-07-17T09:26:29;2.75;;;1.73;;
20142;SDS011;10509;46.476;7.134;2022-07-17T09:28:55;3.28;;;2.13;;
20142;SDS011;10509;46.476;7.134;2022-07-17T09:31:25;4.28;;;1.70;;
20142;SDS011;10509;46.476;7.134;2022-07-17T09:33:51;2.42;;;2.15;;
20142;SDS011;10509;46.476;7.134;2022-07-17T09:36:17;2.78;;;2.20;;
20142;SDS011;10509;46.476;7.134;2022-07-17T09:38:43;3.80;;;1.77;;
20142;SDS011;10509;46.476;7.134;2022-07-17T09:43:41;3.75;;;2.00;;
20142;SDS011;10509;46.476;7.134;2022-07-17T09:46:09;3.75;;;1.88;;
20142;SDS011;10509;46.476;7.134;2022-07-17T09:48:39;2.03;;;1.73;;
20142;SDS011;10509;46.476;7.134;2022-07-17T09:51:06;1.75;;;1.60;;
20142;SDS011;10509;46.476;7.134;2022-07-17T09:53:32;3.28;;;2.00;;
20142;SDS011;10509;46.476;7.134;2022-07-17T09:56:01;2.03;;;1.90;;
20142;SDS011;10509;46.476;7.134;2022-07-17T09:58:27;3.15;;;2.03;;
20142;SDS011;10509;46.476;7.134;2022-07-17T10:00:56;3.78;;;2.35;;
20142;SDS011;10509;46.476;7.134;2022-07-17T10:03:22;1.95;;;1.73;;
20142;SDS011;10509;46.476;7.134;2022-07-17T10:05:48;3.00;;;1.92;;
20142;SDS011;10509;46.476;7.134;2022-07-17T10:08:14;2.60;;;2.00;;
20142;SDS011;10509;46.476;7.134;2022-07-17T10:10:40;2.40;;;1.80;;
20142;SDS011;10509;46.476;7.134;2022-07-17T10:13:06;2.25;;;1.67;;
20142;SDS011;10509;46.476;7.134;2022-07-17T10:15:33;3.03;;;1.73;;
20142;SDS011;10509;46.476;7.134;2022-07-17T10:18:06;4.15;;;1.90;;
20142;SDS011;10509;46.476;7.134;2022-07-17T10:20:32;2.40;;;1.60;;
20142;SDS011;10509;46.476;7.134;2022-07-17T10:22:58;2.95;;;1.80;;
20142;SDS011;10509;46.476;7.134;2022-07-17T10:25:24;3.00;;;1.75;;
20142;SDS011;10509;46.476;7.134;2022-07-17T10:27:54;2.22;;;1.80;;
20142;SDS011;10509;46.476;7.134;2022-07-17T10:30:27;2.35;;;1.80;;
20142;SDS011;10509;46.476;7.134;2022-07-17T10:32:58;2.65;;;1.65;;
20142;SDS011;10509;46.476;7.134;2022-07-17T10:35:25;2.08;;;1.80;;
20142;SDS011;10509;46.476;7.134;2022-07-17T10:37:51;5.03;;;3.30;;
20142;SDS011;10509;46.476;7.134;2022-07-17T10:40:21;3.65;;;1.52;;
20142;SDS011;10509;46.476;7.134;2022-07-17T10:45:21;2.78;;;1.48;;
20142;SDS011;10509;46.476;7.134;2022-07-17T10:50:15;2.33;;;1.90;;
20142;SDS011;10509;46.476;7.134;2022-07-17T10:52:41;2.15;;;1.88;;
20142;SDS011;10509;46.476;7.134;2022-07-17T10:55:20;3.35;;;1.98;;
20142;SDS011;10509;46.476;7.134;2022-07-17T10:57:46;2.47;;;2.17;;
20142;SDS011;10509;46.476;7.134;2022-07-17T11:00:13;2.72;;;1.98;;
20142;SDS011;10509;46.476;7.134;2022-07-17T11:02:40;4.65;;;1.98;;
20142;SDS011;10509;46.476;7.134;2022-07-17T11:05:07;2.35;;;1.65;;
20142;SDS011;10509;46.476;7.134;2022-07-17T11:07:33;4.30;;;1.90;;
20142;SDS011;10509;46.476;7.134;2022-07-17T11:09:59;2.38;;;1.88;;
20142;SDS011;10509;46.476;7.134;2022-07-17T11:12:32;2.10;;;1.90;;
20142;SDS011;10509;46.476;7.134;2022-07-17T11:15:02;2.20;;;2.00;;
20142;SDS011;10509;46.476;7.134;2022-07-17T11:17:28;3.38;;;1.80;;
20142;SDS011;10509;46.476;7.134;2022-07-17T11:19:54;2.67;;;2.20;;
20142;SDS011;10509;46.476;7.134;2022-07-17T11:22:23;2.25;;;1.77;;
20142;SDS011;10509;46.476;7.134;2022-07-17T11:24:49;2.80;;;1.70;;
20142;SDS011;10509;46.476;7.134;2022-07-17T11:27:24;3.97;;;1.80;;
20142;SDS011;10509;46.476;7.134;2022-07-17T11:29:52;1.95;;;1.65;;
20142;SDS011;10509;46.476;7.134;2022-07-17T11:32:18;2.00;;;1.80;;
20142;SDS011;10509;46.476;7.134;2022-07-17T11:34:44;2.83;;;2.10;;
20142;SDS011;10509;46.476;7.134;2022-07-17T11:37:10;3.65;;;1.90;;
20142;SDS011;10509;46.476;7.134;2022-07-17T11:39:40;7.72;;;2.30;;
20142;SDS011;10509;46.476;7.134;2022-07-17T11:42:07;2.30;;;1.80;;
20142;SDS011;10509;46.476;7.134;2022-07-17T11:44:34;4.30;;;2.05;;
20142;SDS011;10509;46.476;7.134;2022-07-17T11:47:00;1.80;;;1.70;;
20142;SDS011;10509;46.476;7.134;2022-07-17T11:49:27;2.90;;;1.90;;
20142;SDS011;10509;46.476;7.134;2022-07-17T11:51:57;1.83;;;1.65;;
20142;SDS011;10509;46.476;7.134;2022-07-17T11:54:24;3.50;;;1.92;;
20142;SDS011;10509;46.476;7.134;2022-07-17T11:56:54;1.70;;;1.60;;
20142;SDS011;10509;46.476;7.134;2022-07-17T11:59:38;3.70;;;1.75;;
20142;SDS011;10509;46.476;7.134;2022-07-17T12:02:08;2.38;;;1.70;;
20142;SDS011;10509;46.476;7.134;2022-07-17T12:04:34;4.35;;;1.75;;
20142;SDS011;10509;46.476;7.134;2022-07-17T12:07:01;1.90;;;1.60;;
20142;SDS011;10509;46.476;7.134;2022-07-17T12:09:31;1.75;;;1.65;;
20142;SDS011;10509;46.476;7.134;2022-07-17T12:11:59;3.75;;;2.00;;
20142;SDS011;10509;46.476;7.134;2022-07-17T12:14:25;1.95;;;1.83;;
20142;SDS011;10509;46.476;7.134;2022-07-17T12:16:51;3.67;;;1.63;;
20142;SDS011;10509;46.476;7.134;2022-07-17T12:19:18;2.10;;;1.60;;
20142;SDS011;10509;46.476;7.134;2022-07-17T12:21:50;2.58;;;1.52;;
20142;SDS011;10509;46.476;7.134;2022-07-17T12:24:19;3.05;;;1.73;;
20142;SDS011;10509;46.476;7.134;2022-07-17T12:26:46;2.47;;;1.70;;
20142;SDS011;10509;46.476;7.134;2022-07-17T12:29:12;2.33;;;1.90;;
20142;SDS011;10509;46.476;7.134;2022-07-17T12:31:38;2.65;;;1.73;;
20142;SDS011;10509;46.476;7.134;2022-07-17T12:34:04;3.70;;;1.75;;
20142;SDS011;10509;46.476;7.134;2022-07-17T12:36:30;3.33;;;1.85;;
20142;SDS011;10509;46.476;7.134;2022-07-17T12:38:56;2.80;;;1.75;;
20142;SDS011;10509;46.476;7.134;2022-07-17T12:41:23;1.92;;;1.73;;
20142;SDS011;10509;46.476;7.134;2022-07-17T12:43:49;2.72;;;1.85;;
20142;SDS011;10509;46.476;7.134;2022-07-17T12:46:15;2.22;;;2.00;;
20142;SDS011;10509;46.476;7.134;2022-07-17T12:48:42;2.10;;;1.90;;
20142;SDS011;10509;46.476;7.134;2022-07-17T12:51:09;3.78;;;1.67;;
20142;SDS011;10509;46.476;7.134;2022-07-17T12:53:35;3.92;;;2.20;;
20142;SDS011;10509;46.476;7.134;2022-07-17T12:56:02;3.35;;;1.77;;
20142;SDS011;10509;46.476;7.134;2022-07-17T12:58:29;1.60;;;1.50;;
20142;SDS011;10509;46.476;7.134;2022-07-17T13:00:55;2.10;;;1.80;;
20142;SDS011;10509;46.476;7.134;2022-07-17T13:03:21;3.20;;;1.80;;
20142;SDS011;10509;46.476;7.134;2022-07-17T13:05:47;2.58;;;1.80;;
20142;SDS011;10509;46.476;7.134;2022-07-17T13:08:13;2.65;;;1.90;;
20142;SDS011;10509;46.476;7.134;2022-07-17T13:10:39;2.15;;;1.70;;
20142;SDS011;10509;46.476;7.134;2022-07-17T13:13:06;6.18;;;1.85;;
20142;SDS011;10509;46.476;7.134;2022-07-17T13:15:32;3.80;;;1.92;;
20142;SDS011;10509;46.476;7.134;2022-07-17T13:17:58;1.60;;;1.50;;
20142;SDS011;10509;46.476;7.134;2022-07-17T13:20:25;2.95;;;1.50;;
20142;SDS011;10509;46.476;7.134;2022-07-17T13:22:51;2.72;;;1.60;;
20142;SDS011;10509;46.476;7.134;2022-07-17T13:25:17;4.03;;;1.90;;
20142;SDS011;10509;46.476;7.134;2022-07-17T13:27:43;3.45;;;1.60;;
20142;SDS011;10509;46.476;7.134;2022-07-17T13:30:09;2.47;;;1.60;;
20142;SDS011;10509;46.476;7.134;2022-07-17T13:32:36;3.47;;;1.50;;
20142;SDS011;10509;46.476;7.134;2022-07-17T13:35:02;1.73;;;1.63;;
20142;SDS011;10509;46.476;7.134;2022-07-17T13:37:28;2.03;;;1.60;;
20142;SDS011;10509;46.476;7.134;2022-07-17T13:39:54;2.97;;;2.00;;
20142;SDS011;10509;46.476;7.134;2022-07-17T13:42:19;2.92;;;1.55;;
20142;SDS011;10509;46.476;7.134;2022-07-17T13:44:45;2.78;;;1.65;;
20142;SDS011;10509;46.476;7.134;2022-07-17T13:47:11;4.13;;;1.70;;
20142;SDS011;10509;46.476;7.134;2022-07-17T13:49:37;7.28;;;1.58;;
20142;SDS011;10509;46.476;7.134;2022-07-17T13:52:04;2.00;;;1.65;;
20142;SDS011;10509;46.476;7.134;2022-07-17T13:54:30;1.80;;;1.55;;
20142;SDS011;10509;46.476;7.134;2022-07-17T13:56:56;2.08;;;1.88;;
20142;SDS011;10509;46.476;7.134;2022-07-17T13:59:25;2.65;;;1.60;;
20142;SDS011;10509;46.476;7.134;2022-07-17T14:01:51;3.17;;;1.77;;
20142;SDS011;10509;46.476;7.134;2022-07-17T14:04:17;5.00;;;1.55;;
20142;SDS011;10509;46.476;7.134;2022-07-17T14:06:43;2.60;;;1.67;;
20142;SDS011;10509;46.476;7.134;2022-07-17T14:09:09;2.55;;;1.45;;
20142;SDS011;10509;46.476;7.134;2022-07-17T14:11:35;2.88;;;1.70;;
20142;SDS011;10509;46.476;7.134;2022-07-17T14:14:02;4.30;;;1.30;;
20142;SDS011;10509;46.476;7.134;2022-07-17T14:16:29;1.70;;;1.60;;
20142;SDS011;10509;46.476;7.134;2022-07-17T14:18:55;1.83;;;1.67;;
20142;SDS011;10509;46.476;7.134;2022-07-17T14:21:28;2.45;;;1.90;;
20142;SDS011;10509;46.476;7.134;2022-07-17T14:23:54;2.78;;;1.40;;
20142;SDS011;10509;46.476;7.134;2022-07-17T14:26:20;1.67;;;1.58;;
20142;SDS011;10509;46.476;7.134;2022-07-17T14:28:46;1.50;;;1.40;;
20142;SDS011;10509;46.476;7.134;2022-07-17T14:31:12;1.60;;;1.50;;
20142;SDS011;10509;46.476;7.134;2022-07-17T14:33:38;2.38;;;2.17;;
20142;SDS011;10509;46.476;7.134;2022-07-17T14:36:04;2.00;;;1.80;;
20142;SDS011;10509;46.476;7.134;2022-07-17T14:38:30;4.10;;;2.08;;
20142;SDS011;10509;46.476;7.134;2022-07-17T14:40:57;2.17;;;1.75;;
20142;SDS011;10509;46.476;7.134;2022-07-17T14:43:23;2.03;;;1.45;;
20142;SDS011;10509;46.476;7.134;2022-07-17T14:45:49;2.33;;;1.50;;
20142;SDS011;10509;46.476;7.134;2022-07-17T14:48:15;2.97;;;1.50;;
20142;SDS011;10509;46.476;7.134;2022-07-17T14:50:41;4.18;;;1.77;;